Time;durP1;ratioP1;P1;durP2;ratioP2;P2;SDS_P1;SDS_P2;PMS_P1;PMS_P2;Temp;Humidity;BMP_temperature;BMP_pressure;BME280_temperature;BME280_humidity;BME280_pressure;Samples;Min_cycle;Max_cycle;Signal;HPM_P1;HPM_P2
2023/05/28 00:00:44;;;;;;;;;;;11.20;99.90;;;;;;6099464;23;19921;-72
2023/05/28 00:03:10;;;;;;;;;;;11.70;99.90;;;;;;6100459;23;20018;-72
2023/05/28 00:05:35;;;;;;;;;;;11.30;99.90;;;;;;6127585;23;20344;-72
2023/05/28 00:08:01;;;;;;;;;;;11.40;99.90;;;;;;6100341;23;19921;-72
2023/05/28 00:10:27;;;;;;;;;;;11.20;99.90;;;;;;6125506;23;20321;-72
2023/05/28 00:12:53;;;;;;;;;;;11.20;99.90;;;;;;6125077;23;20088;-72
2023/05/28 00:15:19;;;;;;;;;;;11.20;99.90;;;;;;6126267;23;19921;-71
2023/05/28 00:17:44;;;;;;;;;;;11.10;99.90;;;;;;6125980;23;19928;-71
2023/05/28 00:20:10;;;;;;;;;;;11.10;99.90;;;;;;6127431;23;19928;-71
2023/05/28 00:22:36;;;;;;;;;;;11.10;99.90;;;;;;6100058;23;20000;-72
2023/05/28 00:25:01;;;;;;;;;;;11.10;99.90;;;;;;6125227;23;19976;-72
2023/05/28 00:27:27;;;;;;;;;;;11.10;99.90;;;;;;6124572;23;19936;-71
2023/05/28 00:29:53;;;;;;;;;;;11.00;99.90;;;;;;6124848;23;19925;-72
2023/05/28 00:32:18;;;;;;;;;;;11.10;99.90;;;;;;6125963;23;19971;-72
2023/05/28 00:34:44;;;;;;;;;;;11.10;99.90;;;;;;6124773;23;19925;-72
2023/05/28 00:37:13;;;;;;;;;;;11.00;99.90;;;;;;6124941;23;19921;-72
2023/05/28 00:39:41;;;;;;;;;;;11.00;99.90;;;;;;6101916;23;19921;-71
2023/05/28 00:42:12;;;;;;;;;;;11.30;99.90;;;;;;6100023;23;20305;-73
2023/05/28 00:44:39;;;;;;;;;;;10.80;99.90;;;;;;6126051;23;19976;-70
2023/05/28 00:47:05;;;;;;;;;;;10.70;99.90;;;;;;6126526;23;20000;-70
2023/05/28 00:49:32;;;;;;;;;;;10.70;99.90;;;;;;6126868;23;20307;-70
2023/05/28 00:51:58;;;;;;;;;;;11.00;99.90;;;;;;6124793;23;19996;-71
2023/05/28 00:54:27;;;;;;;;;;;10.70;99.90;;;;;;6126693;23;19921;-71
2023/05/28 00:57:00;;;;;;;;;;;10.60;99.90;;;;;;6125797;23;19924;-71
2023/05/28 00:59:26;;;;;;;;;;;10.60;99.90;;;;;;6125183;23;19921;-71
2023/05/28 01:01:54;;;;;;;;;;;11.00;99.90;;;;;;6125277;23;20401;-71
2023/05/28 01:04:21;;;;;;;;;;;10.50;99.90;;;;;;6125896;23;19921;-71
2023/05/28 01:06:50;;;;;;;;;;;10.50;99.90;;;;;;6125179;23;19928;-71
2023/05/28 01:09:16;;;;;;;;;;;10.50;99.90;;;;;;6100695;23;20024;-71
2023/05/28 01:11:43;;;;;;;;;;;10.40;99.90;;;;;;6126460;23;20345;-71
2023/05/28 01:14:09;;;;;;;;;;;10.50;99.90;;;;;;6124672;23;19917;-71
2023/05/28 01:16:35;;;;;;;;;;;10.40;99.90;;;;;;6126006;23;19921;-71
2023/05/28 01:19:01;;;;;;;;;;;10.40;99.90;;;;;;6124775;23;20011;-71
2023/05/28 01:21:27;;;;;;;;;;;10.40;99.90;;;;;;6125121;23;19984;-72
2023/05/28 01:23:53;;;;;;;;;;;10.40;99.90;;;;;;6099579;23;19925;-72
2023/05/28 01:26:19;;;;;;;;;;;10.40;99.90;;;;;;6100388;23;20322;-72
2023/05/28 01:28:45;;;;;;;;;;;10.40;99.90;;;;;;6100916;23;19921;-72
2023/05/28 01:31:11;;;;;;;;;;;10.40;99.90;;;;;;6125225;23;19928;-72
2023/05/28 01:33:38;;;;;;;;;;;10.40;99.90;;;;;;6125038;23;19917;-73
2023/05/28 01:36:09;;;;;;;;;;;10.40;99.90;;;;;;6126570;23;19924;-72
2023/05/28 01:38:35;;;;;;;;;;;10.40;99.90;;;;;;6099672;23;19995;-72
2023/05/28 01:41:01;;;;;;;;;;;10.40;99.90;;;;;;6124760;23;19964;-72
2023/05/28 01:43:26;;;;;;;;;;;10.40;99.90;;;;;;6125145;23;19920;-73
2023/05/28 01:45:52;;;;;;;;;;;10.50;99.90;;;;;;6123700;23;20330;-72
2023/05/28 01:48:18;;;;;;;;;;;10.40;99.90;;;;;;6124938;23;19924;-73
2023/05/28 01:50:46;;;;;;;;;;;10.30;99.90;;;;;;6124707;23;19921;-72
2023/05/28 01:53:12;;;;;;;;;;;10.30;99.90;;;;;;6099549;23;19920;-71
2023/05/28 01:55:38;;;;;;;;;;;10.30;99.90;;;;;;6099949;23;19944;-72
2023/05/28 01:58:04;;;;;;;;;;;10.30;99.90;;;;;;6100147;23;20357;-72
2023/05/28 02:00:30;;;;;;;;;;;10.30;99.90;;;;;;6125364;23;20330;-72
2023/05/28 02:02:56;;;;;;;;;;;10.30;99.90;;;;;;6099714;23;19996;-72
2023/05/28 02:05:21;;;;;;;;;;;10.30;99.90;;;;;;6126239;23;19921;-72
2023/05/28 02:07:49;;;;;;;;;;;10.30;99.90;;;;;;6124121;23;19917;-72
2023/05/28 02:10:15;;;;;;;;;;;10.20;99.90;;;;;;6124863;23;19928;-72
2023/05/28 02:12:43;;;;;;;;;;;10.20;99.90;;;;;;6124932;23;19995;-73
2023/05/28 02:15:11;;;;;;;;;;;10.30;99.90;;;;;;6123588;23;19948;-72
2023/05/28 02:17:43;;;;;;;;;;;10.20;99.90;;;;;;6124841;23;19921;-72
2023/05/28 02:20:09;;;;;;;;;;;10.10;99.90;;;;;;6099353;23;20245;-72
2023/05/28 02:22:35;;;;;;;;;;;10.10;99.90;;;;;;6126629;23;19921;-72
2023/05/28 02:25:00;;;;;;;;;;;10.10;99.90;;;;;;6123823;23;20323;-72
2023/05/28 02:27:26;;;;;;;;;;;10.00;99.90;;;;;;6125463;23;20309;-72
2023/05/28 02:29:52;;;;;;;;;;;10.10;99.90;;;;;;6125498;23;19920;-72
2023/05/28 02:32:18;;;;;;;;;;;10.00;99.90;;;;;;6126675;23;19927;-72
2023/05/28 02:34:44;;;;;;;;;;;10.00;99.90;;;;;;6123722;23;20261;-72
2023/05/28 02:37:09;;;;;;;;;;;10.00;99.90;;;;;;6124307;23;19952;-73
2023/05/28 02:39:35;;;;;;;;;;;10.00;99.90;;;;;;6124686;23;20297;-72
2023/05/28 02:42:00;;;;;;;;;;;10.00;99.90;;;;;;6124330;23;20334;-72
2023/05/28 02:44:26;;;;;;;;;;;10.20;99.90;;;;;;6100397;23;19920;-72
2023/05/28 02:46:52;;;;;;;;;;;10.00;99.90;;;;;;6126209;23;20219;-72
2023/05/28 02:49:17;;;;;;;;;;;9.90;99.90;;;;;;6124898;23;20021;-72
2023/05/28 02:51:43;;;;;;;;;;;9.90;99.90;;;;;;6126291;23;19932;-73
2023/05/28 02:54:10;;;;;;;;;;;9.90;99.90;;;;;;6126082;23;19928;-71
2023/05/28 02:56:36;;;;;;;;;;;9.90;99.90;;;;;;6123827;23;19996;-72
2023/05/28 02:59:01;;;;;;;;;;;9.80;99.90;;;;;;6124612;23;19941;-72
2023/05/28 03:01:27;;;;;;;;;;;9.80;99.90;;;;;;6126224;23;19928;-72
2023/05/28 03:03:52;;;;;;;;;;;9.80;99.90;;;;;;6123209;23;19929;-72
2023/05/28 03:06:18;;;;;;;;;;;9.80;99.90;;;;;;6125936;23;19921;-73
2023/05/28 03:08:43;;;;;;;;;;;9.80;99.90;;;;;;6124605;23;19921;-72
2023/05/28 03:11:12;;;;;;;;;;;9.70;99.90;;;;;;6123419;23;20417;-72
2023/05/28 03:13:40;;;;;;;;;;;9.70;99.90;;;;;;6126266;23;19932;-72
2023/05/28 03:16:06;;;;;;;;;;;9.80;99.90;;;;;;6123693;23;19925;-72
2023/05/28 03:18:31;;;;;;;;;;;9.70;99.90;;;;;;6123689;23;19936;-72
2023/05/28 03:20:57;;;;;;;;;;;9.60;99.90;;;;;;6125650;23;19957;-71
2023/05/28 03:23:22;;;;;;;;;;;9.60;99.90;;;;;;6123168;23;19929;-72
2023/05/28 03:25:48;;;;;;;;;;;9.60;99.90;;;;;;6124156;23;20023;-72
2023/05/28 03:28:13;;;;;;;;;;;9.60;99.90;;;;;;6125537;23;20365;-72
2023/05/28 03:30:42;;;;;;;;;;;9.60;99.90;;;;;;6125214;23;19970;-72
2023/05/28 03:33:07;;;;;;;;;;;9.60;99.90;;;;;;6123922;23;19929;-72
2023/05/28 03:35:33;;;;;;;;;;;9.60;99.90;;;;;;6124476;23;19932;-72
2023/05/28 03:37:59;;;;;;;;;;;9.60;99.90;;;;;;6125406;23;19999;-72
2023/05/28 03:40:24;;;;;;;;;;;9.60;99.90;;;;;;6127521;23;19921;-72
2023/05/28 03:42:50;;;;;;;;;;;9.60;99.90;;;;;;6127249;23;20211;-72
2023/05/28 03:45:16;;;;;;;;;;;9.60;99.90;;;;;;6126763;23;19925;-72
2023/05/28 03:47:41;;;;;;;;;;;9.60;99.90;;;;;;6101291;23;19921;-72
2023/05/28 03:50:07;;;;;;;;;;;9.60;99.90;;;;;;6125378;23;19924;-72
2023/05/28 03:52:33;;;;;;;;;;;9.70;99.90;;;;;;6126235;23;19936;-72
2023/05/28 03:54:58;;;;;;;;;;;9.60;99.90;;;;;;6127541;23;19928;-72
2023/05/28 03:57:24;;;;;;;;;;;9.70;99.90;;;;;;6125757;23;19921;-72
2023/05/28 03:59:49;;;;;;;;;;;9.70;99.90;;;;;;6126224;23;19924;-72
2023/05/28 04:02:15;;;;;;;;;;;9.70;99.90;;;;;;6125863;23;19924;-72
2023/05/28 04:04:40;;;;;;;;;;;10.30;99.90;;;;;;6125826;23;19996;-72
2023/05/28 04:07:07;;;;;;;;;;;9.70;99.90;;;;;;6125758;23;19988;-72
2023/05/28 04:09:32;;;;;;;;;;;9.70;99.90;;;;;;6127221;23;19927;-72
2023/05/28 04:11:58;;;;;;;;;;;9.70;99.90;;;;;;6126987;23;19999;-73
2023/05/28 04:14:24;;;;;;;;;;;9.70;99.90;;;;;;6100467;23;19924;-72
2023/05/28 04:16:50;;;;;;;;;;;9.70;99.90;;;;;;6126908;23;19975;-72
2023/05/28 04:19:15;;;;;;;;;;;9.70;99.90;;;;;;6101232;23;19995;-72
2023/05/28 04:21:41;;;;;;;;;;;9.80;99.90;;;;;;6126726;23;19992;-72
2023/05/28 04:24:12;;;;;;;;;;;10.00;99.90;;;;;;6127368;23;20382;-72
2023/05/28 04:26:41;;;;;;;;;;;9.80;99.90;;;;;;6100345;23;19921;-72
2023/05/28 04:29:11;;;;;;;;;;;9.90;99.90;;;;;;6100342;23;20385;-73
2023/05/28 04:31:40;;;;;;;;;;;10.00;99.90;;;;;;6101299;23;19928;-72
2023/05/28 04:34:06;;;;;;;;;;;9.90;99.90;;;;;;6100011;23;19928;-72
2023/05/28 04:36:33;;;;;;;;;;;10.00;99.90;;;;;;6127593;23;19921;-71
2023/05/28 04:39:01;;;;;;;;;;;10.10;99.90;;;;;;6127456;23;19921;-72
2023/05/28 04:41:27;;;;;;;;;;;10.20;99.90;;;;;;6126950;23;19921;-72
2023/05/28 04:43:52;;;;;;;;;;;10.20;99.90;;;;;;6105531;23;19921;-72
2023/05/28 04:46:18;;;;;;;;;;;10.30;99.90;;;;;;6133781;23;19976;-72
2023/05/28 04:48:44;;;;;;;;;;;10.40;99.90;;;;;;6130162;23;20294;-72
2023/05/28 04:51:13;;;;;;;;;;;10.40;99.90;;;;;;6126410;23;20231;-72
2023/05/28 04:53:41;;;;;;;;;;;11.80;99.90;;;;;;6125696;23;19952;-72
2023/05/28 04:56:07;;;;;;;;;;;10.50;99.90;;;;;;6126120;23;19980;-72
2023/05/28 04:58:32;;;;;;;;;;;10.60;99.90;;;;;;6126473;23;20014;-73
2023/05/28 05:00:58;;;;;;;;;;;10.70;99.90;;;;;;6127074;23;19960;-72
2023/05/28 05:03:24;;;;;;;;;;;10.80;99.90;;;;;;6126467;23;19949;-72
2023/05/28 05:05:52;;;;;;;;;;;10.90;99.90;;;;;;6126762;23;19995;-72
2023/05/28 05:08:18;;;;;;;;;;;10.90;99.90;;;;;;6100717;23;19960;-72
2023/05/28 05:10:43;;;;;;;;;;;11.10;99.90;;;;;;6125647;23;19924;-72
2023/05/28 05:13:09;;;;;;;;;;;11.00;99.90;;;;;;6125205;23;19921;-72
2023/05/28 05:15:35;;;;;;;;;;;11.00;99.90;;;;;;6126894;23;19928;-73
2023/05/28 05:18:03;;;;;;;;;;;11.10;99.90;;;;;;6124085;23;20356;-73
2023/05/28 05:20:29;;;;;;;;;;;11.20;99.90;;;;;;6127014;23;19927;-72
2023/05/28 05:22:56;;;;;;;;;;;11.30;99.90;;;;;;6125573;23;19921;-73
2023/05/28 05:25:22;;;;;;;;;;;11.30;99.90;;;;;;6125003;23;20253;-73
2023/05/28 05:27:50;;;;;;;;;;;11.40;99.90;;;;;;6124715;23;19927;-72
2023/05/28 05:30:15;;;;;;;;;;;11.40;99.90;;;;;;6125219;23;19921;-71
2023/05/28 05:32:41;;;;;;;;;;;11.60;99.90;;;;;;6124879;23;20056;-72
2023/05/28 05:35:07;;;;;;;;;;;11.70;99.90;;;;;;6126271;23;19928;-71
2023/05/28 05:37:32;;;;;;;;;;;11.80;99.90;;;;;;6123125;23;19995;-72
2023/05/28 05:40:00;;;;;;;;;;;11.80;99.90;;;;;;6124622;23;20338;-72
2023/05/28 05:42:26;;;;;;;;;;;11.90;99.90;;;;;;6126997;23;19928;-72
2023/05/28 05:44:52;;;;;;;;;;;12.00;99.90;;;;;;6124125;23;20322;-72
2023/05/28 05:47:21;;;;;;;;;;;12.00;99.90;;;;;;6125356;23;19921;-72
2023/05/28 05:49:46;;;;;;;;;;;12.10;99.90;;;;;;6126611;23;20282;-73
2023/05/28 05:52:14;;;;;;;;;;;12.10;99.90;;;;;;6124095;23;19925;-72
2023/05/28 05:54:40;;;;;;;;;;;12.20;99.90;;;;;;6126114;23;19917;-72
2023/05/28 05:57:05;;;;;;;;;;;12.20;99.90;;;;;;6126199;23;19957;-72
2023/05/28 05:59:31;;;;;;;;;;;12.30;99.90;;;;;;6123673;23;19956;-72
2023/05/28 06:01:56;;;;;;;;;;;12.30;99.90;;;;;;6123976;23;19957;-72
2023/05/28 06:04:22;;;;;;;;;;;12.40;99.90;;;;;;6126682;23;19956;-72
2023/05/28 06:06:47;;;;;;;;;;;12.40;99.90;;;;;;6098829;23;19921;-72
2023/05/28 06:09:16;;;;;;;;;;;12.50;99.90;;;;;;6099777;23;20063;-72
2023/05/28 06:11:45;;;;;;;;;;;12.50;99.90;;;;;;6126725;23;19925;-72
2023/05/28 06:14:10;;;;;;;;;;;12.50;99.90;;;;;;6123470;23;20346;-72
2023/05/28 06:16:36;;;;;;;;;;;12.60;99.90;;;;;;6124481;23;19976;-72
2023/05/28 06:19:01;;;;;;;;;;;12.70;99.90;;;;;;6099576;23;19996;-72
2023/05/28 06:21:27;;;;;;;;;;;12.70;99.90;;;;;;6100321;23;19968;-72
2023/05/28 06:23:55;;;;;;;;;;;12.80;99.90;;;;;;6100307;23;20385;-72
2023/05/28 06:26:24;;;;;;;;;;;12.90;99.90;;;;;;6123146;23;19921;-72
2023/05/28 06:28:52;;;;;;;;;;;13.00;99.90;;;;;;6125692;23;19921;-72
2023/05/28 06:31:18;;;;;;;;;;;13.10;99.90;;;;;;6124653;23;20246;-72
2023/05/28 06:33:43;;;;;;;;;;;13.20;99.90;;;;;;6124010;23;19921;-72
2023/05/28 06:36:09;;;;;;;;;;;13.20;99.90;;;;;;6124263;23;20298;-72
2023/05/28 06:38:35;;;;;;;;;;;13.30;99.90;;;;;;6126373;23;19980;-72
2023/05/28 06:41:01;;;;;;;;;;;13.40;99.90;;;;;;6123526;23;19917;-72
2023/05/28 06:43:26;;;;;;;;;;;13.50;99.90;;;;;;6126558;23;19921;-72
2023/05/28 06:45:55;;;;;;;;;;;13.50;99.90;;;;;;6124978;23;19921;-72
2023/05/28 06:48:21;;;;;;;;;;;13.60;99.90;;;;;;6123809;23;19952;-72
2023/05/28 06:50:46;;;;;;;;;;;13.60;99.90;;;;;;6126499;23;20014;-72
2023/05/28 06:53:12;;;;;;;;;;;13.90;99.90;;;;;;6125851;23;19921;-72
2023/05/28 06:55:40;;;;;;;;;;;13.70;99.90;;;;;;6125333;23;19996;-72
2023/05/28 06:58:06;;;;;;;;;;;13.70;99.90;;;;;;6126341;23;19975;-72
2023/05/28 07:00:40;;;;;;;;;;;13.80;99.90;;;;;;6124714;23;19925;-72
2023/05/28 07:03:06;;;;;;;;;;;14.30;99.90;;;;;;6125170;23;19983;-72
2023/05/28 07:05:32;;;;;;;;;;;14.00;99.90;;;;;;6124743;23;20341;-72
2023/05/28 07:08:00;;;;;;;;;;;14.10;99.90;;;;;;6126359;23;19975;-73
2023/05/28 07:10:29;;;;;;;;;;;14.20;99.90;;;;;;6102184;23;20330;-73
2023/05/28 07:12:57;;;;;;;;;;;14.30;99.90;;;;;;6104260;23;19920;-74
2023/05/28 07:15:23;;;;;;;;;;;14.40;99.90;;;;;;6130300;23;19921;-72
2023/05/28 07:17:48;;;;;;;;;;;14.60;99.90;;;;;;6129273;23;19995;-73
2023/05/28 07:20:16;;;;;;;;;;;14.90;99.90;;;;;;6131076;23;19952;-73
2023/05/28 07:22:41;;;;;;;;;;;15.50;99.90;;;;;;6103514;23;19921;-75
2023/05/28 07:25:07;;;;;;;;;;;16.40;99.90;;;;;;6130270;23;19983;-73
2023/05/28 07:27:32;;;;;;;;;;;17.30;99.90;;;;;;6127557;23;19921;-74
2023/05/28 07:29:59;;;;;;;;;;;18.10;99.90;;;;;;6125773;23;20315;-75
2023/05/28 07:32:24;;;;;;;;;;;18.60;99.40;;;;;;6100041;23;19992;-76
2023/05/28 07:34:50;;;;;;;;;;;19.20;99.20;;;;;;6127401;23;20329;-75
2023/05/28 07:37:15;;;;;;;;;;;19.70;97.80;;;;;;6126219;23;19921;-75
2023/05/28 07:39:41;;;;;;;;;;;19.80;95.10;;;;;;6127810;23;19927;-76
2023/05/28 07:42:06;;;;;;;;;;;20.00;95.40;;;;;;6126494;23;20608;-75
2023/05/28 07:44:36;;;;;;;;;;;20.40;96.10;;;;;;6098332;23;20385;-74
2023/05/28 07:47:01;;;;;;;;;;;20.80;95.70;;;;;;6124099;23;19921;-75
2023/05/28 07:49:27;;;;;;;;;;;21.10;96.30;;;;;;6123464;23;20246;-77
2023/05/28 07:51:53;;;;;;;;;;;21.50;95.30;;;;;;6123607;23;19928;-76
2023/05/28 07:54:18;;;;;;;;;;;21.70;94.10;;;;;;6123125;23;19921;-78
2023/05/28 07:56:44;;;;;;;;;;;21.80;93.60;;;;;;6123753;23;19921;-75
2023/05/28 07:59:11;;;;;;;;;;;22.20;94.70;;;;;;6124264;23;19983;-78
2023/05/28 08:01:37;;;;;;;;;;;22.40;93.40;;;;;;6127181;23;19948;-80
2023/05/28 08:04:02;;;;;;;;;;;22.80;93.80;;;;;;6127351;23;19921;-77
2023/05/28 08:06:32;;;;;;;;;;;23.10;93.50;;;;;;6119327;23;19921;-73
2023/05/28 08:08:58;;;;;;;;;;;23.30;93.10;;;;;;6122790;23;19921;-73
2023/05/28 08:11:24;;;;;;;;;;;23.40;92.20;;;;;;6123969;23;19956;-74
2023/05/28 08:13:49;;;;;;;;;;;23.70;92.00;;;;;;6124578;23;20297;-73
2023/05/28 08:16:15;;;;;;;;;;;23.90;92.50;;;;;;6125619;23;19920;-72
2023/05/28 08:18:43;;;;;;;;;;;24.10;93.30;;;;;;6126035;23;20423;-72
2023/05/28 08:21:09;;;;;;;;;;;24.10;91.70;;;;;;6125140;23;20003;-75
2023/05/28 08:23:34;;;;;;;;;;;24.10;92.40;;;;;;6127154;23;20314;-70
2023/05/28 08:26:03;;;;;;;;;;;23.90;92.70;;;;;;6124622;23;19920;-69
2023/05/28 08:28:32;;;;;;;;;;;24.20;93.00;;;;;;6127645;23;19921;-75
2023/05/28 08:30:58;;;;;;;;;;;24.70;92.00;;;;;;6125008;23;19929;-70
2023/05/28 08:33:23;;;;;;;;;;;24.90;92.10;;;;;;6124333;23;19924;-69
2023/05/28 08:35:49;;;;;;;;;;;25.00;92.70;;;;;;6126548;23;20245;-70
2023/05/28 08:38:14;;;;;;;;;;;25.30;91.50;;;;;;6128362;23;19956;-69
2023/05/28 08:40:43;;;;;;;;;;;25.50;90.80;;;;;;6129881;23;19921;-71
2023/05/28 08:43:08;;;;;;;;;;;25.40;89.80;;;;;;6105857;23;19925;-72
2023/05/28 08:45:35;;;;;;;;;;;25.40;91.10;;;;;;6129182;23;19931;-72
2023/05/28 08:48:04;;;;;;;;;;;25.60;89.60;;;;;;6124738;23;21297;-70
2023/05/28 08:50:30;;;;;;;;;;;25.60;90.30;;;;;;6125169;23;20322;-71
2023/05/28 08:52:57;;;;;;;;;;;25.80;90.60;;;;;;6124650;23;19928;-73
2023/05/28 08:55:22;;;;;;;;;;;25.90;90.30;;;;;;6126163;23;19924;-72
2023/05/28 08:57:54;;;;;;;;;;;25.80;89.30;;;;;;6125023;23;19921;-72
2023/05/28 09:00:21;;;;;;;;;;;26.10;89.30;;;;;;6125478;23;19928;-73
2023/05/28 09:02:47;;;;;;;;;;;26.10;88.30;;;;;;6124406;23;20226;-70
2023/05/28 09:05:12;;;;;;;;;;;26.20;84.70;;;;;;6124873;23;20349;-72
2023/05/28 09:07:41;;;;;;;;;;;26.30;88.80;;;;;;6124850;23;19916;-77
2023/05/28 09:10:06;;;;;;;;;;;26.40;87.70;;;;;;6126194;23;19921;-74
2023/05/28 09:12:36;;;;;;;;;;;26.40;82.90;;;;;;6126894;23;19992;-77
2023/05/28 09:15:02;;;;;;;;;;;26.30;82.20;;;;;;6124960;23;20035;-83
2023/05/28 09:17:40;;;;;;;;;;;26.20;84.20;;;;;;6126912;23;19928;-80
2023/05/28 09:20:12;;;;;;;;;;;26.20;81.50;;;;;;6125036;23;19967;-83
2023/05/28 09:22:41;;;;;;;;;;;26.20;83.20;;;;;;6127334;23;19925;-78
2023/05/28 09:25:07;;;;;;;;;;;25.90;83.40;;;;;;6125399;23;19964;-78
2023/05/28 09:27:33;;;;;;;;;;;25.90;82.70;;;;;;6126989;23;19921;-80
2023/05/28 09:30:05;;;;;;;;;;;25.60;83.10;;;;;;6118903;23;19928;-80
2023/05/28 09:32:33;;;;;;;;;;;25.70;84.10;;;;;;6098232;23;19925;-86
2023/05/28 09:34:59;;;;;;;;;;;26.00;84.80;;;;;;6096102;23;19944;-80
2023/05/28 09:37:27;;;;;;;;;;;26.10;84.10;;;;;;6094567;23;19925;-77
2023/05/28 09:48:25;;;;;;;;;;;25.50;79.30;;;;;;6135682;23;20246;-78
2023/05/28 09:54:14;;;;;;;;;;;25.20;81.10;;;;;;6125590;23;20396;-77
2023/05/28 10:07:11;;;;;;;;;;;25.80;77.00;;;;;;6066258;23;19961;-75
2023/05/28 10:09:39;;;;;;;;;;;26.10;79.60;;;;;;6063135;23;19977;-77
2023/05/28 10:12:11;;;;;;;;;;;26.20;80.00;;;;;;6136502;23;20334;-83
2023/05/28 10:14:40;;;;;;;;;;;26.20;80.90;;;;;;6126043;23;20265;-76
2023/05/28 10:17:10;;;;;;;;;;;26.20;81.00;;;;;;6126877;23;20349;-75
2023/05/28 10:19:39;;;;;;;;;;;26.50;81.90;;;;;;6151601;23;19988;-75
2023/05/28 10:22:14;;;;;;;;;;;26.40;81.20;;;;;;6152869;23;20019;-76
2023/05/28 10:24:41;;;;;;;;;;;26.20;80.00;;;;;;6154322;23;19930;-74
2023/05/28 10:27:13;;;;;;;;;;;26.10;81.30;;;;;;6126919;23;20292;-77
2023/05/28 10:29:43;;;;;;;;;;;26.00;81.60;;;;;;6126828;23;20384;-72
2023/05/28 10:32:09;;;;;;;;;;;26.00;83.30;;;;;;6153394;23;19920;-73
2023/05/28 10:34:39;;;;;;;;;;;26.10;82.30;;;;;;6152591;23;19927;-79
2023/05/28 10:37:10;;;;;;;;;;;25.90;79.70;;;;;;6126893;23;19921;-73
2023/05/28 10:39:43;;;;;;;;;;;25.80;84.30;;;;;;6126996;23;19983;-78
2023/05/28 10:42:10;;;;;;;;;;;25.80;85.00;;;;;;6155865;23;19966;-77
2023/05/28 10:45:10;;;;;;;;;;;25.80;83.70;;;;;;6127395;23;19931;-77
2023/05/28 10:47:35;;;;;;;;;;;25.60;82.10;;;;;;6107055;23;20271;-75
2023/05/28 10:50:14;;;;;;;;;;;25.60;87.10;;;;;;6128689;23;19921;-77
2023/05/28 10:52:40;;;;;;;;;;;25.70;86.80;;;;;;6156952;23;20261;-71
2023/05/28 10:55:10;;;;;;;;;;;25.90;86.20;;;;;;6155824;23;20354;-76
2023/05/28 10:57:45;;;;;;;;;;;26.00;87.10;;;;;;6157291;23;20348;-75
2023/05/28 11:00:14;;;;;;;;;;;25.90;86.00;;;;;;6156787;23;19916;-75
2023/05/28 11:02:44;;;;;;;;;;;25.60;87.20;;;;;;6129526;23;19935;-83
2023/05/28 11:05:10;;;;;;;;;;;25.60;86.70;;;;;;6157006;23;19920;-85
2023/05/28 11:17:27;;;;;;;;;;;25.30;87.30;;;;;;6155763;23;19956;-74
2023/05/28 11:27:01;;;;;;;;;;;24.80;86.70;;;;;;6154966;23;20011;-78
2023/05/28 11:33:04;;;;;;;;;;;25.60;85.80;;;;;;6156221;23;19916;-79
2023/05/28 11:35:30;;;;;;;;;;;25.00;87.00;;;;;;6157448;23;19982;-75
2023/05/28 11:37:59;;;;;;;;;;;24.50;85.80;;;;;;6156422;23;20345;-80
2023/05/28 11:40:32;;;;;;;;;;;23.90;85.40;;;;;;6157588;23;20404;-77
2023/05/28 11:45:49;;;;;;;;;;;24.50;88.30;;;;;;6186428;23;19920;-74
2023/05/28 11:48:15;;;;;;;;;;;24.30;90.20;;;;;;6161132;23;19920;-74
2023/05/28 11:50:41;;;;;;;;;;;24.30;88.20;;;;;;6182225;23;20020;-74
2023/05/28 11:53:06;;;;;;;;;;;24.10;89.20;;;;;;6183174;23;20348;-73
2023/05/28 11:55:33;;;;;;;;;;;24.00;91.30;;;;;;6158082;23;19921;-73
2023/05/28 11:58:02;;;;;;;;;;;24.00;90.00;;;;;;6184175;23;19920;-76
2023/05/28 12:00:35;;;;;;;;;;;24.20;90.60;;;;;;6185500;23;19920;-75
2023/05/28 12:03:01;;;;;;;;;;;24.10;90.90;;;;;;6185389;23;20261;-73
2023/05/28 12:05:26;;;;;;;;;;;24.00;89.50;;;;;;6183224;23;19921;-77
2023/05/28 12:07:53;;;;;;;;;;;24.00;89.60;;;;;;6156883;23;19942;-71
2023/05/28 12:10:22;;;;;;;;;;;24.10;91.00;;;;;;6185500;23;19925;-71
2023/05/28 12:15:26;;;;;;;;;;;24.20;90.10;;;;;;6158971;23;19920;-74
2023/05/28 12:17:56;;;;;;;;;;;24.10;90.10;;;;;;6128964;23;20004;-73
2023/05/28 12:20:22;;;;;;;;;;;24.10;90.40;;;;;;6129104;23;19921;-74
2023/05/28 12:23:00;;;;;;;;;;;24.10;90.20;;;;;;6129135;23;20253;-72
2023/05/28 12:25:27;;;;;;;;;;;24.10;91.00;;;;;;6156420;23;19921;-72
2023/05/28 12:27:53;;;;;;;;;;;24.00;89.90;;;;;;6127066;23;20725;-72
2023/05/28 12:30:18;;;;;;;;;;;24.10;90.60;;;;;;6160356;23;19925;-72
2023/05/28 12:32:44;;;;;;;;;;;23.80;90.80;;;;;;6131208;23;19921;-72
2023/05/28 12:35:09;;;;;;;;;;;23.70;89.80;;;;;;6160868;23;19968;-72
2023/05/28 12:37:35;;;;;;;;;;;23.60;90.00;;;;;;6130482;23;20254;-73
2023/05/28 12:40:01;;;;;;;;;;;23.40;90.80;;;;;;6129957;23;20245;-72
2023/05/28 12:42:26;;;;;;;;;;;23.30;90.80;;;;;;6128374;23;19924;-73
2023/05/28 12:44:52;;;;;;;;;;;23.60;92.20;;;;;;6127421;23;19976;-73
2023/05/28 12:47:23;;;;;;;;;;;23.60;90.00;;;;;;6128078;23;19921;-73
2023/05/28 12:49:49;;;;;;;;;;;23.20;90.50;;;;;;6128241;23;19924;-74
2023/05/28 12:52:34;;;;;;;;;;;23.10;90.90;;;;;;6128604;23;19921;-73
2023/05/28 12:55:00;;;;;;;;;;;23.20;92.20;;;;;;6106022;23;19916;-73
2023/05/28 12:57:26;;;;;;;;;;;23.30;92.30;;;;;;6128663;23;19920;-73
2023/05/28 13:00:14;;;;;;;;;;;23.10;91.50;;;;;;6154227;23;20318;-73
2023/05/28 13:02:40;;;;;;;;;;;23.00;91.30;;;;;;6155332;23;19928;-73
2023/05/28 13:05:06;;;;;;;;;;;23.10;91.40;;;;;;6130767;23;19927;-76
2023/05/28 13:07:43;;;;;;;;;;;23.10;92.20;;;;;;6148647;23;19927;-77
2023/05/28 13:10:10;;;;;;;;;;;23.10;92.80;;;;;;6154160;23;19924;-72
2023/05/28 13:12:41;;;;;;;;;;;23.00;92.30;;;;;;6152567;23;19921;-76
2023/05/28 13:15:19;;;;;;;;;;;22.90;92.40;;;;;;6152902;23;20216;-79
2023/05/28 13:17:51;;;;;;;;;;;23.10;92.50;;;;;;6153399;23;20344;-79
2023/05/28 13:20:17;;;;;;;;;;;23.00;92.50;;;;;;6153984;23;19943;-79
2023/05/28 13:22:43;;;;;;;;;;;22.90;92.50;;;;;;6151373;23;20334;-81
2023/05/28 13:25:11;;;;;;;;;;;22.80;93.10;;;;;;6150927;23;19927;-81
2023/05/28 13:27:37;;;;;;;;;;;22.70;92.50;;;;;;6150948;23;19956;-80
2023/05/28 13:30:06;;;;;;;;;;;22.70;92.90;;;;;;6150287;23;20258;-79
2023/05/28 13:32:32;;;;;;;;;;;22.70;93.10;;;;;;6154367;23;19931;-77
2023/05/28 13:34:57;;;;;;;;;;;22.50;92.50;;;;;;6152002;23;19920;-84
2023/05/28 13:37:23;;;;;;;;;;;22.40;92.30;;;;;;6151793;23;19920;-79
2023/05/28 13:39:48;;;;;;;;;;;22.30;93.00;;;;;;6155452;23;19921;-74
2023/05/28 13:42:19;;;;;;;;;;;22.00;93.10;;;;;;6153174;23;19917;-78
2023/05/28 13:44:47;;;;;;;;;;;22.10;93.80;;;;;;6154694;23;19920;-78
2023/05/28 13:47:13;;;;;;;;;;;22.10;93.00;;;;;;6154151;23;19925;-88
2023/05/28 13:49:39;;;;;;;;;;;22.00;93.50;;;;;;6154114;23;20325;-83
2023/05/28 13:52:05;;;;;;;;;;;21.90;93.80;;;;;;6155404;23;19974;-79
2023/05/28 13:54:34;;;;;;;;;;;21.80;93.80;;;;;;6153124;23;19916;-78
2023/05/28 13:57:00;;;;;;;;;;;21.70;93.90;;;;;;6148405;23;19921;-86
2023/05/28 13:59:26;;;;;;;;;;;21.80;93.80;;;;;;6152075;23;20936;-85
2023/05/28 14:01:54;;;;;;;;;;;21.40;94.20;;;;;;6152878;23;20322;-83
2023/05/28 14:04:22;;;;;;;;;;;21.10;94.80;;;;;;6154504;23;19958;-81
2023/05/28 14:06:48;;;;;;;;;;;21.10;95.20;;;;;;6182382;23;20022;-82
2023/05/28 14:09:13;;;;;;;;;;;20.90;95.10;;;;;;6184028;23;19924;-82
2023/05/28 14:11:39;;;;;;;;;;;21.00;94.90;;;;;;6185479;23;19928;-83
2023/05/28 14:14:05;;;;;;;;;;;20.90;94.70;;;;;;6159034;23;19923;-90
2023/05/28 14:16:30;;;;;;;;;;;20.90;95.60;;;;;;6156512;23;19921;-84
2023/05/28 14:18:56;;;;;;;;;;;20.80;95.50;;;;;;6156318;23;19924;-82
2023/05/28 14:21:21;;;;;;;;;;;20.90;96.20;;;;;;6183888;23;19920;-82
2023/05/28 14:23:47;;;;;;;;;;;20.90;95.70;;;;;;6185541;23;19960;-80
2023/05/28 14:26:12;;;;;;;;;;;20.80;95.50;;;;;;6182877;23;19999;-82
2023/05/28 14:28:39;;;;;;;;;;;21.00;96.50;;;;;;6183190;23;19925;-77
2023/05/28 14:31:05;;;;;;;;;;;21.00;95.90;;;;;;6179321;23;19935;-78
2023/05/28 14:33:31;;;;;;;;;;;20.90;95.50;;;;;;6156198;23;19920;-85
2023/05/28 14:35:56;;;;;;;;;;;20.80;95.90;;;;;;6183835;23;20252;-75
2023/05/28 14:38:25;;;;;;;;;;;20.80;95.80;;;;;;6157267;23;19924;-78
2023/05/28 14:40:50;;;;;;;;;;;20.60;96.30;;;;;;6157728;23;20216;-82
2023/05/28 14:43:16;;;;;;;;;;;20.80;96.90;;;;;;6182764;23;19944;-81
2023/05/28 14:45:45;;;;;;;;;;;20.60;96.50;;;;;;6155948;23;19971;-83
2023/05/28 14:48:11;;;;;;;;;;;20.60;97.10;;;;;;6181040;23;19921;-76
2023/05/28 14:50:43;;;;;;;;;;;20.70;97.10;;;;;;6155764;23;20340;-84
2023/05/28 14:53:12;;;;;;;;;;;20.70;96.90;;;;;;6154538;23;20011;-84
2023/05/28 14:55:43;;;;;;;;;;;20.80;97.30;;;;;;6184466;23;19920;-84
2023/05/28 14:58:09;;;;;;;;;;;20.70;96.90;;;;;;6157717;23;20341;-79
2023/05/28 15:00:35;;;;;;;;;;;20.90;97.00;;;;;;6156884;23;20332;-81
2023/05/28 15:03:00;;;;;;;;;;;21.00;97.30;;;;;;6158021;23;19928;-79
2023/05/28 15:05:27;;;;;;;;;;;21.30;97.40;;;;;;6157378;23;19929;-83